sensor_id;sensor_type;location;lat;lon;timestamp;pressure;altitude;pressure_sealevel;temperature;humidity
69027;BME280;56080;47.594;19.116;2023-04-02T00:10:24;99226;;;10.54;71.22
69027;BME280;56080;47.594;19.116;2023-04-02T00:20:10;99227;;;10.21;72.27
69027;BME280;56080;47.594;19.116;2023-04-02T00:30:11;99229;;;10.00;73.29
69027;BME280;56080;47.594;19.116;2023-04-02T00:40:16;99243;;;10.28;72.98
69027;BME280;56080;47.594;19.116;2023-04-02T01:00:17;99240;;;10.55;72.57
69027;BME280;56080;47.594;19.116;2023-04-02T01:10:21;99241;;;10.66;72.20
69027;BME280;56080;47.594;19.116;2023-04-02T01:30:14;99250;;;10.59;72.93
69027;BME280;56080;47.594;19.116;2023-04-02T01:40:20;99254;;;10.65;73.02
69027;BME280;56080;47.594;19.116;2023-04-02T02:00:17;99265;;;10.51;73.85
69027;BME280;56080;47.594;19.116;2023-04-02T02:10:21;99267;;;10.62;73.37
69027;BME280;56080;47.594;19.116;2023-04-02T02:20:18;99275;;;10.51;74.04
69027;BME280;56080;47.594;19.116;2023-04-02T02:30:29;99277;;;10.56;73.96
69027;BME280;56080;47.594;19.116;2023-04-02T02:40:30;99278;;;10.48;74.43
69027;BME280;56080;47.594;19.116;2023-04-02T02:50:21;99282;;;10.43;74.85
69027;BME280;56080;47.594;19.116;2023-04-02T03:00:24;99276;;;10.50;75.00
69027;BME280;56080;47.594;19.116;2023-04-02T03:10:29;99278;;;10.43;75.19
69027;BME280;56080;47.594;19.116;2023-04-02T03:20:42;99291;;;10.36;75.83
69027;BME280;56080;47.594;19.116;2023-04-02T03:30:41;99278;;;10.19;76.57
69027;BME280;56080;47.594;19.116;2023-04-02T03:40:27;99284;;;10.10;76.99
69027;BME280;56080;47.594;19.116;2023-04-02T03:50:34;99290;;;10.13;76.97
69027;BME280;56080;47.594;19.116;2023-04-02T04:10:28;99305;;;9.95;77.81
69027;BME280;56080;47.594;19.116;2023-04-02T04:20:32;99315;;;10.07;77.79
69027;BME280;56080;47.594;19.116;2023-04-02T04:30:42;99313;;;9.90;78.33
69027;BME280;56080;47.594;19.116;2023-04-02T04:40:32;99321;;;9.90;78.70
69027;BME280;56080;47.594;19.116;2023-04-02T04:50:34;99328;;;9.72;79.22
69027;BME280;56080;47.594;19.116;2023-04-02T05:10:37;99328;;;9.79;78.80
69027;BME280;56080;47.594;19.116;2023-04-02T05:20:39;99332;;;10.00;78.57
69027;BME280;56080;47.594;19.116;2023-04-02T05:30:36;99346;;;10.27;77.63
69027;BME280;56080;47.594;19.116;2023-04-02T05:40:37;99352;;;10.49;76.38
69027;BME280;56080;47.594;19.116;2023-04-02T06:10:43;99369;;;11.78;70.87
69027;BME280;56080;47.594;19.116;2023-04-02T06:20:40;99372;;;11.89;70.12
69027;BME280;56080;47.594;19.116;2023-04-02T06:30:40;99377;;;11.95;69.96
69027;BME280;56080;47.594;19.116;2023-04-02T06:40:43;99389;;;12.02;69.42
69027;BME280;56080;47.594;19.116;2023-04-02T07:00:45;99402;;;12.50;68.14
69027;BME280;56080;47.594;19.116;2023-04-02T07:10:45;99402;;;13.10;65.62
69027;BME280;56080;47.594;19.116;2023-04-02T07:20:45;99415;;;13.62;63.43
69027;BME280;56080;47.594;19.116;2023-04-02T07:30:48;99412;;;13.74;62.88
69027;BME280;56080;47.594;19.116;2023-04-02T07:40:47;99424;;;13.75;62.74
69027;BME280;56080;47.594;19.116;2023-04-02T07:50:48;99438;;;13.65;62.56
69027;BME280;56080;47.594;19.116;2023-04-02T08:00:49;99444;;;14.06;61.66
69027;BME280;56080;47.594;19.116;2023-04-02T08:10:51;99453;;;13.87;61.85
69027;BME280;56080;47.594;19.116;2023-04-02T08:20:52;99455;;;13.82;62.05
69027;BME280;56080;47.594;19.116;2023-04-02T08:30:53;99463;;;14.36;61.08
69027;BME280;56080;47.594;19.116;2023-04-02T08:40:55;99469;;;14.60;59.81
69027;BME280;56080;47.594;19.116;2023-04-02T08:50:58;99469;;;15.49;58.30
69027;BME280;56080;47.594;19.116;2023-04-02T09:00:57;99466;;;17.09;51.55
69027;BME280;56080;47.594;19.116;2023-04-02T09:11:01;99480;;;17.65;50.79
69027;BME280;56080;47.594;19.116;2023-04-02T09:21:01;99481;;;18.70;47.32
69027;BME280;56080;47.594;19.116;2023-04-02T09:31:10;99486;;;17.55;49.70
69027;BME280;56080;47.594;19.116;2023-04-02T09:41:03;99500;;;16.99;51.99
69027;BME280;56080;47.594;19.116;2023-04-02T10:11:09;99517;;;16.18;54.20
69027;BME280;56080;47.594;19.116;2023-04-02T10:21:09;99515;;;15.96;55.19
69027;BME280;56080;47.594;19.116;2023-04-02T10:31:27;99512;;;15.90;55.24
69027;BME280;56080;47.594;19.116;2023-04-02T11:01:14;99498;;;16.18;54.91
69027;BME280;56080;47.594;19.116;2023-04-02T11:31:18;99493;;;16.40;50.68
69027;BME280;56080;47.594;19.116;2023-04-02T11:41:58;99487;;;16.28;50.22
69027;BME280;56080;47.594;19.116;2023-04-02T12:11:38;99466;;;16.79;49.54
69027;BME280;56080;47.594;19.116;2023-04-02T12:21:25;99466;;;16.69;50.29
69027;BME280;56080;47.594;19.116;2023-04-02T12:31:26;99465;;;16.92;51.08
69027;BME280;56080;47.594;19.116;2023-04-02T12:51:29;99451;;;17.01;49.94
69027;BME280;56080;47.594;19.116;2023-04-02T13:01:30;99453;;;16.30;51.55
69027;BME280;56080;47.594;19.116;2023-04-02T13:11:32;99453;;;16.40;51.83
69027;BME280;56080;47.594;19.116;2023-04-02T13:21:32;99456;;;16.36;50.47
69027;BME280;56080;47.594;19.116;2023-04-02T13:31:34;99445;;;16.53;49.97
69027;BME280;56080;47.594;19.116;2023-04-02T13:41:39;99451;;;16.76;48.76
69027;BME280;56080;47.594;19.116;2023-04-02T13:51:40;99451;;;16.84;47.14
69027;BME280;56080;47.594;19.116;2023-04-02T14:31:50;99460;;;17.13;47.71
69027;BME280;56080;47.594;19.116;2023-04-02T14:51:45;99534;;;15.78;52.15
69027;BME280;56080;47.594;19.116;2023-04-02T15:01:46;99550;;;15.35;54.26
69027;BME280;56080;47.594;19.116;2023-04-02T15:11:48;99562;;;14.58;58.15
69027;BME280;56080;47.594;19.116;2023-04-02T15:31:49;99583;;;13.93;76.45
69027;BME280;56080;47.594;19.116;2023-04-02T16:01:56;99575;;;13.18;81.24
69027;BME280;56080;47.594;19.116;2023-04-02T16:11:54;99583;;;13.55;81.84
69027;BME280;56080;47.594;19.116;2023-04-02T16:21:57;99612;;;13.56;80.31
69027;BME280;56080;47.594;19.116;2023-04-02T16:31:57;99619;;;13.00;84.67
69027;BME280;56080;47.594;19.116;2023-04-02T17:02:01;99648;;;13.22;81.97
69027;BME280;56080;47.594;19.116;2023-04-02T17:22:03;99664;;;13.05;84.31
69027;BME280;56080;47.594;19.116;2023-04-02T17:32:02;99676;;;12.93;84.39
69027;BME280;56080;47.594;19.116;2023-04-02T17:42:07;99693;;;12.58;76.79
69027;BME280;56080;47.594;19.116;2023-04-02T18:22:10;99759;;;12.15;67.08
69027;BME280;56080;47.594;19.116;2023-04-02T18:42:14;99799;;;11.81;62.26
69027;BME280;56080;47.594;19.116;2023-04-02T18:52:12;99821;;;11.77;62.51
69027;BME280;56080;47.594;19.116;2023-04-02T19:12:16;99847;;;11.58;61.03
69027;BME280;56080;47.594;19.116;2023-04-02T19:52:15;99893;;;11.28;60.16
69027;BME280;56080;47.594;19.116;2023-04-02T20:02:18;99909;;;11.25;60.54
69027;BME280;56080;47.594;19.116;2023-04-02T20:12:17;99915;;;11.11;60.82
69027;BME280;56080;47.594;19.116;2023-04-02T20:22:18;99936;;;10.93;61.21
69027;BME280;56080;47.594;19.116;2023-04-02T20:32:21;99952;;;10.70;61.70
69027;BME280;56080;47.594;19.116;2023-04-02T20:42:19;99967;;;10.79;61.39
69027;BME280;56080;47.594;19.116;2023-04-02T20:52:24;99979;;;10.73;62.26
69027;BME280;56080;47.594;19.116;2023-04-02T21:02:21;99998;;;10.85;62.88
69027;BME280;56080;47.594;19.116;2023-04-02T21:12:23;100019;;;10.61;64.04
69027;BME280;56080;47.594;19.116;2023-04-02T21:22:23;100031;;;10.32;70.10
69027;BME280;56080;47.594;19.116;2023-04-02T21:32:24;100047;;;10.28;71.22
69027;BME280;56080;47.594;19.116;2023-04-02T21:42:25;100059;;;10.40;69.94
69027;BME280;56080;47.594;19.116;2023-04-02T21:52:25;100061;;;10.30;66.93
69027;BME280;56080;47.594;19.116;2023-04-02T22:02:27;100073;;;10.27;66.37
69027;BME280;56080;47.594;19.116;2023-04-02T22:12:27;100081;;;10.34;66.37
69027;BME280;56080;47.594;19.116;2023-04-02T22:22:29;100081;;;10.12;64.97
69027;BME280;56080;47.594;19.116;2023-04-02T22:42:32;100093;;;9.75;62.16
69027;BME280;56080;47.594;19.116;2023-04-02T22:52:30;100106;;;9.77;61.45
69027;BME280;56080;47.594;19.116;2023-04-02T23:02:31;100113;;;9.57;61.07
69027;BME280;56080;47.594;19.116;2023-04-02T23:22:32;100125;;;9.40;61.22
69027;BME280;56080;47.594;19.116;2023-04-02T23:32:33;100130;;;9.21;60.52
69027;BME280;56080;47.594;19.116;2023-04-02T23:42:34;100131;;;9.21;61.12
